createdAt,value
2022-11-16T05:03:42.146Z,80.00
2022-11-16T05:05:44.805Z,79.49
2022-11-16T05:07:47.958Z,78.74
2022-11-16T05:09:51.000Z,78.54
2022-11-16T05:11:53.683Z,78.05
2022-11-16T05:13:56.541Z,77.68
2022-11-16T05:15:59.210Z,77.27
2022-11-16T05:18:01.883Z,77.19
2022-11-16T05:20:24.316Z,76.87
2022-11-16T05:22:27.210Z,76.46
2022-11-16T05:24:35.658Z,76.33
2022-11-16T05:26:38.687Z,76.25
2022-11-16T05:28:41.408Z,76.24
2022-11-16T05:30:46.335Z,76.29
2022-11-16T05:32:49.002Z,76.13
2022-11-16T05:34:51.963Z,75.87
2022-11-16T05:36:56.401Z,75.69
2022-11-16T05:38:59.086Z,75.74
2022-11-16T05:41:01.826Z,75.34
2022-11-16T05:43:04.514Z,75.46
2022-11-16T05:45:07.996Z,75.21
2022-11-16T05:47:10.675Z,75.08
2022-11-16T05:49:14.412Z,75.02
2022-11-16T05:51:17.629Z,74.97
2022-11-16T05:53:21.697Z,74.83
2022-11-16T05:55:24.381Z,74.64
2022-11-16T05:57:27.059Z,74.77
2022-11-16T05:59:30.109Z,74.74
2022-11-16T06:01:32.982Z,74.44
2022-11-16T06:03:36.407Z,74.37
2022-11-16T06:05:40.809Z,74.41
2022-11-16T06:07:43.602Z,74.02
2022-11-16T06:09:47.633Z,73.94
2022-11-16T06:11:50.293Z,73.94
2022-11-16T06:13:53.139Z,73.80
2022-11-16T06:15:56.012Z,74.04
2022-11-16T06:17:58.768Z,73.57
2022-11-16T06:20:01.473Z,73.55
2022-11-16T06:22:04.142Z,73.62
2022-11-16T06:24:09.657Z,73.33
2022-11-16T06:26:14.215Z,73.22
2022-11-16T06:28:17.088Z,73.15
2022-11-16T06:30:19.936Z,73.14
2022-11-16T06:32:22.935Z,73.13
2022-11-16T06:34:25.800Z,73.04
2022-11-16T06:36:28.585Z,72.78
2022-11-16T06:38:31.546Z,72.77
2022-11-16T06:40:35.922Z,72.71
2022-11-16T06:42:40.058Z,72.59
2022-11-16T06:44:42.693Z,72.61
2022-11-16T06:46:45.372Z,72.51
2022-11-16T06:48:48.081Z,72.25
2022-11-16T06:50:52.674Z,72.20
2022-11-16T06:52:55.445Z,72.37
2022-11-16T06:54:58.157Z,72.11
2022-11-16T06:57:00.837Z,72.19
2022-11-16T06:59:04.875Z,72.13
2022-11-16T07:01:08.091Z,71.89
2022-11-16T07:03:10.885Z,71.88
2022-11-16T07:05:14.065Z,71.83
2022-11-16T07:07:17.726Z,72.03
2022-11-16T07:09:20.446Z,71.49
2022-11-16T07:11:23.117Z,71.56
2022-11-16T07:13:28.407Z,71.39
2022-11-16T07:15:32.628Z,71.34
2022-11-16T07:17:35.816Z,71.33
2022-11-16T07:19:40.199Z,70.98
2022-11-16T07:21:42.959Z,70.98
2022-11-16T07:23:45.863Z,70.92
2022-11-16T07:25:48.592Z,71.00
2022-11-16T07:27:52.632Z,70.89
2022-11-16T07:29:55.419Z,70.64
2022-11-16T07:31:59.902Z,70.71
2022-11-16T07:34:02.577Z,70.64
2022-11-16T07:36:07.669Z,70.60
2022-11-16T07:38:14.198Z,70.21
2022-11-16T07:40:19.816Z,70.31
2022-11-16T07:42:22.511Z,70.19
2022-11-16T07:44:25.275Z,70.14
2022-11-16T07:46:45.823Z,70.20
2022-11-16T07:48:51.216Z,69.96
2022-11-16T07:50:53.990Z,69.93
2022-11-16T07:52:56.787Z,69.88
2022-11-16T07:54:59.547Z,69.79
2022-11-16T07:57:02.324Z,69.70
2022-11-16T07:59:05.989Z,69.59
2022-11-16T08:01:11.297Z,69.43
2022-11-16T08:03:14.448Z,69.51
2022-11-16T08:05:18.563Z,69.44
2022-11-16T08:07:21.795Z,68.95
2022-11-16T08:09:24.489Z,69.07
2022-11-16T08:11:27.741Z,68.93
2022-11-16T08:13:34.340Z,68.63
2022-11-16T08:15:37.226Z,68.65
2022-11-16T08:17:39.933Z,68.47
2022-11-16T08:19:43.370Z,68.42
2022-11-16T08:21:47.439Z,68.47
2022-11-16T08:23:55.236Z,68.33
2022-11-16T08:26:01.574Z,68.26
2022-11-16T08:28:04.682Z,67.93
2022-11-16T08:30:10.010Z,67.95
2022-11-16T08:32:12.732Z,67.94
2022-11-16T08:34:15.862Z,67.75
2022-11-16T08:36:18.840Z,67.84
2022-11-16T08:38:23.117Z,67.76
2022-11-16T08:40:25.931Z,67.68
2022-11-16T08:42:29.019Z,67.37
2022-11-16T08:44:31.620Z,67.59
2022-11-16T08:46:34.336Z,67.51
2022-11-16T08:48:38.186Z,67.39
2022-11-16T08:51:10.003Z,67.31
2022-11-16T08:53:03.972Z,67.16
2022-11-16T08:55:10.838Z,67.01
2022-11-16T08:57:13.507Z,67.00
2022-11-16T08:59:16.772Z,66.81
2022-11-16T09:01:22.042Z,66.70
2022-11-16T09:03:27.444Z,66.65
2022-11-16T09:05:30.597Z,66.71
2022-11-16T09:07:33.571Z,66.71
2022-11-16T09:09:37.338Z,66.52
2022-11-16T09:11:42.551Z,66.59
2022-11-16T09:13:47.205Z,66.42
2022-11-16T09:15:56.986Z,66.36
2022-11-16T09:17:59.772Z,66.32
2022-11-16T09:20:02.591Z,66.42
2022-11-16T09:22:05.973Z,65.97
2022-11-16T09:24:08.883Z,66.16
2022-11-16T09:26:11.697Z,66.05
2022-11-16T09:28:16.570Z,66.07
2022-11-16T09:30:19.514Z,65.88
2022-11-16T09:32:22.466Z,65.87
2022-11-16T09:34:25.610Z,65.72
2022-11-16T09:36:29.513Z,65.69
2022-11-16T09:38:47.520Z,65.61
2022-11-16T09:40:55.242Z,65.49
2022-11-16T09:43:07.327Z,65.38
2022-11-16T09:45:22.775Z,65.43
2022-11-16T09:47:36.815Z,65.36
2022-11-16T09:49:43.622Z,65.39
2022-11-16T09:51:49.486Z,65.30
2022-11-16T09:53:59.807Z,65.00
2022-11-16T09:56:05.896Z,65.07
2022-11-16T09:58:14.946Z,65.05
2022-11-16T10:00:23.583Z,64.99
2022-11-16T10:02:31.452Z,65.06
2022-11-16T10:04:47.090Z,64.93
2022-11-16T10:06:55.644Z,64.73
2022-11-16T10:08:59.221Z,64.83
2022-11-16T10:11:24.782Z,64.77
2022-11-16T10:13:42.777Z,64.61
2022-11-16T10:16:04.596Z,64.55
2022-11-16T10:18:18.215Z,64.48
2022-11-16T10:20:47.589Z,64.36
2022-11-16T10:23:02.043Z,64.50
2022-11-16T10:25:14.592Z,64.23
2022-11-16T10:27:37.907Z,64.18
2022-11-16T10:29:51.999Z,64.19
2022-11-16T10:32:11.460Z,63.99
2022-11-16T10:34:22.278Z,63.90
2022-11-16T10:36:28.961Z,64.00
2022-11-16T10:38:32.463Z,63.75
2022-11-16T10:40:39.089Z,63.77
2022-11-16T10:42:42.983Z,63.81
2022-11-16T10:44:49.542Z,63.59
2022-11-16T10:47:03.227Z,63.60
2022-11-16T10:49:18.000Z,63.49
2022-11-16T10:51:24.871Z,63.31
2022-11-16T10:53:30.166Z,63.40
2022-11-16T10:55:33.742Z,63.50
2022-11-16T10:57:55.174Z,63.27
2022-11-16T10:59:59.323Z,63.00
2022-11-16T11:02:28.324Z,63.21
2022-11-16T11:04:33.550Z,63.25
2022-11-16T11:06:36.326Z,63.09
2022-11-16T11:08:39.049Z,63.15
2022-11-16T11:10:42.931Z,63.22
2022-11-16T11:13:02.247Z,63.26
2022-11-16T11:15:25.507Z,62.94
2022-11-16T11:17:32.078Z,63.15
2022-11-16T11:19:36.117Z,63.07
2022-11-16T11:21:39.093Z,63.05
2022-11-16T11:23:45.202Z,63.14
2022-11-16T11:25:54.301Z,63.19
2022-11-16T11:28:06.345Z,62.94
2022-11-16T11:30:21.132Z,62.80
2022-11-16T11:32:28.476Z,62.92
2022-11-16T11:34:33.752Z,62.96
2022-11-16T11:36:41.483Z,62.80
2022-11-16T11:38:57.618Z,62.82
2022-11-16T11:41:01.990Z,62.82
2022-11-16T11:43:06.747Z,62.81
2022-11-16T11:45:14.172Z,62.62
2022-11-16T11:50:02.873Z,62.56
2022-11-16T11:52:17.499Z,62.66
2022-11-16T11:54:27.366Z,62.65
2022-11-16T11:56:34.042Z,62.62
2022-11-16T11:58:40.645Z,62.58
2022-11-16T12:00:56.312Z,62.57
2022-11-16T12:03:23.993Z,62.50
2022-11-16T12:05:47.306Z,62.55
2022-11-16T12:08:05.217Z,62.54
2022-11-16T12:10:20.218Z,62.65
2022-11-16T12:12:36.311Z,62.45
2022-11-16T12:15:05.558Z,62.42
2022-11-16T12:17:15.778Z,62.45
2022-11-16T12:19:42.355Z,62.26
2022-11-16T12:21:54.580Z,62.36
2022-11-16T12:24:13.271Z,62.33
2022-11-16T12:26:23.179Z,62.22
2022-11-16T12:28:47.113Z,62.21
2022-11-16T12:31:05.625Z,62.10
2022-11-16T12:33:24.971Z,62.25
2022-11-16T12:35:40.667Z,62.21
2022-11-16T12:37:50.759Z,62.38
2022-11-16T12:40:09.711Z,62.26
2022-11-16T12:42:29.101Z,62.19
2022-11-16T12:44:47.500Z,62.03
2022-11-16T12:47:03.920Z,62.07
2022-11-16T12:49:29.975Z,62.07
2022-11-16T12:51:45.611Z,61.94
2022-11-16T12:54:06.346Z,61.84
2022-11-16T12:56:19.218Z,61.83
2022-11-16T12:58:35.342Z,61.82
2022-11-16T13:00:54.263Z,61.71
2022-11-16T13:03:15.895Z,61.81
2022-11-16T13:05:22.112Z,61.75
2022-11-16T13:07:29.402Z,61.52
2022-11-16T13:09:36.847Z,61.53
2022-11-16T13:11:44.538Z,61.55
2022-11-16T13:13:53.621Z,61.36
2022-11-16T13:15:59.962Z,61.41
2022-11-16T13:18:04.938Z,61.32
2022-11-16T13:20:22.712Z,61.33
2022-11-16T13:22:28.855Z,61.45
2022-11-16T13:24:46.717Z,61.23
2022-11-16T13:26:58.063Z,61.13
2022-11-16T13:29:10.802Z,61.34
2022-11-16T13:31:19.320Z,61.29
2022-11-16T13:33:36.372Z,61.36
2022-11-16T13:35:40.166Z,61.24
2022-11-16T13:37:47.758Z,61.28
2022-11-16T13:40:20.704Z,61.16
2022-11-16T13:42:25.601Z,61.28
2022-11-16T13:44:30.977Z,61.04
2022-11-16T13:46:58.950Z,61.04
2022-11-16T13:49:02.948Z,61.14
2022-11-16T13:51:08.525Z,60.95
2022-11-16T13:55:43.823Z,60.95
2022-11-16T13:57:53.488Z,60.88
2022-11-16T14:00:11.843Z,60.95
2022-11-16T14:02:31.643Z,60.84
2022-11-16T14:04:43.297Z,60.81
2022-11-16T14:06:59.180Z,60.57
2022-11-16T14:09:01.964Z,60.53
2022-11-16T14:11:06.290Z,60.55
2022-11-16T14:13:42.124Z,60.48
2022-11-16T14:15:45.005Z,60.38
2022-11-16T14:17:57.045Z,60.53
2022-11-16T14:19:59.715Z,60.43
2022-11-16T14:22:09.699Z,60.34
2022-11-16T14:24:26.741Z,60.35
2022-11-16T14:26:43.385Z,60.22
2022-11-16T14:29:12.345Z,60.15
2022-11-16T14:31:22.042Z,60.13
2022-11-16T14:33:32.367Z,60.03
2022-11-16T14:35:38.434Z,60.14
2022-11-16T14:37:42.747Z,59.96
2022-11-16T14:39:45.960Z,60.08
2022-11-16T14:41:49.000Z,59.73
2022-11-16T14:43:55.480Z,59.82
2022-11-16T14:46:03.210Z,59.74
2022-11-16T14:48:13.936Z,59.75
2022-11-16T14:50:22.709Z,59.79
2022-11-16T14:52:35.226Z,59.87
2022-11-16T14:54:42.432Z,59.87
2022-11-16T14:56:58.913Z,59.86
2022-11-16T14:59:03.075Z,59.73
2022-11-16T15:01:08.857Z,59.82
2022-11-16T15:03:13.390Z,59.78
2022-11-16T15:05:18.649Z,59.76
2022-11-16T15:07:24.418Z,59.76
2022-11-16T15:09:30.218Z,59.89
2022-11-16T15:11:52.249Z,59.85
2022-11-16T15:13:55.939Z,59.87
2022-11-16T15:16:16.988Z,59.82
2022-11-16T15:18:22.111Z,59.85
2022-11-16T15:20:28.301Z,59.74
2022-11-16T15:22:40.248Z,59.46
2022-11-16T15:24:42.916Z,59.73
2022-11-16T15:26:45.717Z,59.78
2022-11-16T15:28:50.279Z,59.76
2022-11-16T15:30:55.619Z,59.77
2022-11-16T15:32:59.968Z,59.75
2022-11-16T15:35:05.436Z,59.55
2022-11-16T15:37:11.914Z,59.63
2022-11-16T15:39:19.086Z,59.86
2022-11-16T15:41:22.580Z,59.71
2022-11-16T15:43:29.521Z,59.87
2022-11-16T15:45:32.884Z,59.72
2022-11-16T15:47:37.838Z,59.88
2022-11-16T15:49:44.043Z,59.62
2022-11-16T15:51:46.776Z,59.94
2022-11-16T15:53:51.271Z,59.74
2022-11-16T15:55:54.115Z,59.67
2022-11-16T15:58:08.810Z,59.81
2022-11-16T16:00:23.332Z,59.72
2022-11-16T16:02:28.418Z,59.72
2022-11-16T16:04:31.164Z,59.70
2022-11-16T16:06:46.531Z,59.77
2022-11-16T16:09:04.871Z,59.72
2022-11-16T16:11:10.459Z,59.71
2022-11-16T16:13:32.561Z,59.56
2022-11-16T16:15:36.913Z,59.72
2022-11-16T16:17:39.734Z,59.68
2022-11-16T16:19:44.813Z,59.65
2022-11-16T16:21:48.980Z,59.73
2022-11-16T16:23:53.825Z,59.70
2022-11-16T16:25:56.528Z,59.65
2022-11-16T16:27:59.537Z,59.60
2022-11-16T16:30:06.252Z,59.62
2022-11-16T16:32:14.489Z,59.61
2022-11-16T16:34:17.985Z,59.59
2022-11-16T16:36:20.994Z,59.59
2022-11-16T16:38:25.135Z,59.51
2022-11-16T16:40:28.180Z,59.61
2022-11-16T16:42:30.863Z,59.56
2022-11-16T16:44:33.694Z,59.43
2022-11-16T16:46:36.370Z,59.45
2022-11-16T16:48:44.519Z,59.50
2022-11-16T16:50:47.582Z,59.54
2022-11-16T16:52:50.282Z,59.56
2022-11-16T16:54:54.284Z,59.54
2022-11-16T16:56:57.901Z,59.70
2022-11-16T16:59:00.557Z,59.37
2022-11-16T17:01:04.883Z,59.50
2022-11-16T17:03:07.564Z,59.53
2022-11-16T17:05:10.552Z,59.56
2022-11-16T17:07:13.444Z,59.48
2022-11-16T17:09:16.197Z,59.48
2022-11-16T17:11:20.290Z,59.56
2022-11-16T17:13:23.003Z,59.61
2022-11-16T17:15:25.947Z,59.70
2022-11-16T17:17:28.945Z,59.54
2022-11-16T17:19:31.710Z,59.56
2022-11-16T17:21:34.556Z,59.66
2022-11-16T17:23:38.063Z,59.59
2022-11-16T17:25:41.094Z,59.50
2022-11-16T17:27:45.087Z,59.68
2022-11-16T17:29:47.778Z,59.49
2022-11-16T17:31:50.479Z,59.49
2022-11-16T17:33:53.748Z,59.70
2022-11-16T17:35:57.408Z,59.45
2022-11-16T17:37:59.989Z,59.69
2022-11-16T17:40:02.605Z,59.54
2022-11-16T17:42:05.561Z,59.54
2022-11-16T17:44:09.992Z,59.59
2022-11-16T17:46:14.476Z,59.49
2022-11-16T17:48:17.157Z,59.65
2022-11-16T17:50:19.860Z,59.56
2022-11-16T17:52:22.471Z,59.58
2022-11-16T17:54:25.205Z,59.30
2022-11-16T17:56:29.495Z,59.66
2022-11-16T17:58:32.929Z,59.65
2022-11-16T18:00:37.347Z,59.52
2022-11-16T18:02:40.183Z,59.50
2022-11-16T18:04:46.894Z,59.63
2022-11-16T18:06:53.689Z,59.40
2022-11-16T18:08:57.913Z,59.45
2022-11-16T18:11:05.257Z,59.69
2022-11-16T18:13:08.384Z,59.60
2022-11-16T18:15:28.002Z,59.41
2022-11-16T18:17:34.734Z,59.55
2022-11-16T18:19:37.489Z,59.62
2022-11-16T18:21:41.253Z,59.54
2022-11-16T18:23:44.254Z,59.60
2022-11-16T18:25:46.904Z,59.41
2022-11-16T18:27:52.110Z,59.35
2022-11-16T18:29:54.899Z,59.41
2022-11-16T18:31:57.666Z,59.38
2022-11-16T18:34:02.103Z,59.39
2022-11-16T18:36:06.230Z,59.37
2022-11-16T18:38:12.885Z,59.47
2022-11-16T18:40:15.706Z,59.38
2022-11-16T18:42:18.481Z,59.30
2022-11-16T18:44:21.097Z,59.45
2022-11-16T18:46:26.422Z,59.31
2022-11-16T18:48:29.498Z,59.37
2022-11-16T18:50:33.551Z,59.24
2022-11-16T18:52:37.448Z,59.37
2022-11-16T18:54:40.124Z,59.35
2022-11-16T18:56:43.005Z,59.41
2022-11-16T18:58:51.012Z,59.38
2022-11-16T19:00:55.458Z,59.47
2022-11-16T19:02:58.209Z,59.47
2022-11-16T19:05:00.825Z,59.29
2022-11-16T19:07:04.954Z,59.48
2022-11-16T19:09:09.591Z,59.44
2022-11-16T19:11:14.054Z,59.51
2022-11-16T19:13:16.840Z,59.37
2022-11-16T19:15:19.585Z,59.46
2022-11-16T19:17:24.880Z,59.27
2022-11-16T19:19:29.757Z,59.36
2022-11-16T19:21:32.727Z,59.06
2022-11-16T19:23:42.738Z,59.33
2022-11-16T19:25:45.835Z,59.16
2022-11-16T19:27:48.549Z,59.21
2022-11-16T19:29:51.129Z,59.04
2022-11-16T19:31:53.793Z,59.00
2022-11-16T19:33:57.357Z,59.06
2022-11-16T19:35:59.968Z,59.17
2022-11-16T19:38:02.604Z,59.00
2022-11-16T19:40:08.009Z,58.86
2022-11-16T19:42:10.675Z,58.91
2022-11-16T19:44:13.372Z,58.72
2022-11-16T19:46:18.260Z,58.87
2022-11-16T19:48:20.938Z,58.83
2022-11-16T19:50:24.839Z,58.90
2022-11-16T19:52:27.689Z,58.95
2022-11-16T19:54:30.323Z,58.64
2022-11-16T19:56:34.463Z,58.86
2022-11-16T19:58:38.394Z,58.90
2022-11-16T20:00:41.166Z,58.81
2022-11-16T20:02:43.880Z,58.68
2022-11-16T20:04:46.502Z,58.78
2022-11-16T20:06:49.353Z,58.79
2022-11-16T20:08:53.871Z,58.79
2022-11-16T20:10:56.721Z,58.59
2022-11-16T20:13:00.791Z,58.81
2022-11-16T20:15:03.979Z,58.62
2022-11-16T20:17:06.613Z,58.69
2022-11-16T20:19:11.019Z,58.69
2022-11-16T20:21:18.144Z,58.64
2022-11-16T20:23:20.974Z,58.59
2022-11-16T20:25:23.639Z,58.67
2022-11-16T20:27:26.291Z,58.57
2022-11-16T20:29:30.489Z,58.31
2022-11-16T20:31:34.345Z,58.40
2022-11-16T20:33:37.493Z,58.51
2022-11-16T20:35:40.413Z,58.38
2022-11-16T20:37:43.659Z,58.50
2022-11-16T20:39:47.072Z,58.54
2022-11-16T20:41:49.870Z,58.67
2022-11-16T20:43:54.175Z,58.71
2022-11-16T20:45:58.293Z,58.58
2022-11-16T20:48:01.067Z,58.56
2022-11-16T20:50:04.156Z,58.75
2022-11-16T20:52:06.985Z,58.61
2022-11-16T20:54:09.682Z,58.75
2022-11-16T20:56:12.932Z,58.54
2022-11-16T20:58:21.426Z,58.70
2022-11-16T21:00:25.346Z,58.70
2022-11-16T21:02:29.523Z,58.87
2022-11-16T21:04:32.773Z,58.67
2022-11-16T21:06:35.489Z,58.60
2022-11-16T21:08:39.464Z,58.93
2022-11-16T21:10:42.551Z,58.79
2022-11-16T21:13:02.876Z,58.82
2022-11-16T21:15:06.322Z,58.66
2022-11-16T21:17:09.039Z,58.85
2022-11-16T21:19:13.316Z,58.74
2022-11-16T21:21:16.000Z,58.82
